Skip Navigation LinksHome page > Weather > Current weather Skip Navigation Links

Current Weather

Newark Intl, Newark, N.J.

For information only: do not use for flight planning or navigation.
Latest weather
Observation time Monday, December 6, 2021 8:51 AM EST
Local time Monday, December 6, 2021 9:06 AM EST
Flight conditions Marginal Visual Meteorological Conditions
Winds
Wind direction South-Southwest (200°)
Wind speed 9 mph
Visibility 5 mi.
Present weather mist
Sky condition
Ceiling 1,200 ft. broken clouds
Cloud layer scattered clouds 500 ft.
Cloud layer broken clouds 1,200 ft.
Cloud layer overcast 3,700 ft.
Temperature 53°F
Dewpoint 50°F
Altimeter 29.93 in.Hg
Derived measurements
Relative humidity 89%
Density altitude -211 ft.
Sea-level pressure 29.93 in.Hg
Remarks
Automated weather observing station with precipitation discriminator.
METAR KEWR 061351Z 20008KT 5SM BR SCT005 BKN012 OVC037 12/10 A2993 RMK AO2 SLP134 T01170100

Settings

Location code

InnerDrive.Weather 4.0.6770.0 Release CLR 4.0.30319.42000
Copyright ©2018 Inner Drive Technology. All rights reserved. Portions Copyright ©1986-2018 David Braverman.

Find weather

Site navigation


Skip Navigation Links

Place info

Page info

PayPal - The safer, easier way to pay online!

Return home.

Copyright ©2021 Inner Drive Technology. Purveyors of fine, hand-crafted computer software. Page printed 2021-12-06T14:06:22 UTC.